sensor_id;sensor_type;location;lat;lon;timestamp;pressure;altitude;pressure_sealevel;temperature;humidity
6198;BME280;3132;42.622;23.328;2023-04-09T00:00:15;92966.34;;;5.63;100.00
6198;BME280;3132;42.622;23.328;2023-04-09T00:02:41;92964.69;;;5.57;100.00
6198;BME280;3132;42.622;23.328;2023-04-09T00:05:07;92939.56;;;5.36;100.00
6198;BME280;3132;42.622;23.328;2023-04-09T00:07:32;92948.19;;;5.42;100.00
6198;BME280;3132;42.622;23.328;2023-04-09T00:09:57;92895.06;;;5.18;100.00
6198;BME280;3132;42.622;23.328;2023-04-09T00:12:23;92957.00;;;5.62;100.00
6198;BME280;3132;42.622;23.328;2023-04-09T00:14:48;92962.59;;;5.54;100.00
6198;BME280;3132;42.622;23.328;2023-04-09T00:17:14;92975.22;;;5.67;100.00
6198;BME280;3132;42.622;23.328;2023-04-09T00:19:39;92960.28;;;5.74;100.00
6198;BME280;3132;42.622;23.328;2023-04-09T00:22:05;92973.63;;;5.83;100.00
6198;BME280;3132;42.622;23.328;2023-04-09T00:24:30;92981.72;;;6.08;100.00
6198;BME280;3132;42.622;23.328;2023-04-09T00:26:55;92955.31;;;6.11;100.00
6198;BME280;3132;42.622;23.328;2023-04-09T00:29:21;92977.81;;;6.32;100.00
6198;BME280;3132;42.622;23.328;2023-04-09T00:31:46;92977.81;;;6.32;100.00
6198;BME280;3132;42.622;23.328;2023-04-09T00:34:12;92985.34;;;6.33;100.00
6198;BME280;3132;42.622;23.328;2023-04-09T00:36:38;92987.59;;;6.25;100.00
6198;BME280;3132;42.622;23.328;2023-04-09T00:39:03;92963.66;;;6.18;100.00
6198;BME280;3132;42.622;23.328;2023-04-09T00:41:28;92982.09;;;6.21;100.00
6198;BME280;3132;42.622;23.328;2023-04-09T00:43:55;92941.81;;;5.87;100.00
6198;BME280;3132;42.622;23.328;2023-04-09T00:46:21;92978.13;;;6.14;100.00
6198;BME280;3132;42.622;23.328;2023-04-09T00:48:46;92971.03;;;6.04;100.00
6198;BME280;3132;42.622;23.328;2023-04-09T00:51:12;92980.44;;;6.10;100.00
6198;BME280;3132;42.622;23.328;2023-04-09T00:53:37;92977.97;;;5.99;100.00
6198;BME280;3132;42.622;23.328;2023-04-09T00:56:03;92985.25;;;6.02;100.00
6198;BME280;3132;42.622;23.328;2023-04-09T00:58:29;92977.34;;;5.92;100.00
6198;BME280;3132;42.622;23.328;2023-04-09T01:00:54;92953.22;;;5.70;100.00
6198;BME280;3132;42.622;23.328;2023-04-09T01:03:19;92982.09;;;5.78;100.00
6198;BME280;3132;42.622;23.328;2023-04-09T01:06:08;92984.66;;;5.40;100.00
6198;BME280;3132;42.622;23.328;2023-04-09T01:08:42;92932.00;;;5.13;100.00
6198;BME280;3132;42.622;23.328;2023-04-09T01:14:05;92988.28;;;5.39;100.00
6198;BME280;3132;42.622;23.328;2023-04-09T01:16:34;92953.19;;;5.10;100.00
6198;BME280;3132;42.622;23.328;2023-04-09T01:22:04;92958.97;;;5.17;100.00
6198;BME280;3132;42.622;23.328;2023-04-09T01:24:50;92951.16;;;4.95;100.00
6198;BME280;3132;42.622;23.328;2023-04-09T01:27:21;92982.59;;;5.21;100.00
6198;BME280;3132;42.622;23.328;2023-04-09T01:29:50;92988.78;;;5.20;100.00
6198;BME280;3132;42.622;23.328;2023-04-09T01:32:18;92974.22;;;5.14;100.00
6198;BME280;3132;42.622;23.328;2023-04-09T01:34:46;92948.00;;;4.93;100.00
6198;BME280;3132;42.622;23.328;2023-04-09T01:37:13;92991.91;;;5.22;100.00
6198;BME280;3132;42.622;23.328;2023-04-09T01:39:40;92989.88;;;5.24;100.00
6198;BME280;3132;42.622;23.328;2023-04-09T01:42:08;92974.03;;;5.04;100.00
6198;BME280;3132;42.622;23.328;2023-04-09T01:44:38;92984.38;;;5.04;100.00
6198;BME280;3132;42.622;23.328;2023-04-09T01:47:04;92982.38;;;5.06;100.00
6198;BME280;3132;42.622;23.328;2023-04-09T01:49:29;92974.34;;;4.90;100.00
6198;BME280;3132;42.622;23.328;2023-04-09T01:51:56;92982.97;;;4.96;100.00
6198;BME280;3132;42.622;23.328;2023-04-09T01:54:21;92967.44;;;4.63;100.00
6198;BME280;3132;42.622;23.328;2023-04-09T01:56:47;92988.06;;;4.74;100.00
6198;BME280;3132;42.622;23.328;2023-04-09T01:59:13;93001.59;;;4.65;100.00
6198;BME280;3132;42.622;23.328;2023-04-09T02:01:44;92994.34;;;4.50;100.00
6198;BME280;3132;42.622;23.328;2023-04-09T02:04:29;92984.81;;;4.51;100.00
6198;BME280;3132;42.622;23.328;2023-04-09T02:07:26;92982.75;;;4.36;100.00
6198;BME280;3132;42.622;23.328;2023-04-09T02:09:53;92990.00;;;4.51;100.00
6198;BME280;3132;42.622;23.328;2023-04-09T02:12:20;92990.75;;;4.51;100.00
6198;BME280;3132;42.622;23.328;2023-04-09T02:14:47;92982.47;;;4.49;100.00
6198;BME280;3132;42.622;23.328;2023-04-09T02:17:15;92979.56;;;4.46;100.00
6198;BME280;3132;42.622;23.328;2023-04-09T02:19:42;92987.63;;;4.49;100.00
6198;BME280;3132;42.622;23.328;2023-04-09T02:22:09;92979.59;;;4.34;100.00
6198;BME280;3132;42.622;23.328;2023-04-09T02:24:35;92987.44;;;4.39;100.00
6198;BME280;3132;42.622;23.328;2023-04-09T02:27:01;92965.69;;;4.35;100.00
6198;BME280;3132;42.622;23.328;2023-04-09T02:29:26;92909.22;;;3.99;100.00
6198;BME280;3132;42.622;23.328;2023-04-09T02:31:52;92984.09;;;4.39;100.00
6198;BME280;3132;42.622;23.328;2023-04-09T02:34:18;92981.50;;;4.39;100.00
6198;BME280;3132;42.622;23.328;2023-04-09T02:36:43;92977.09;;;4.39;100.00
6198;BME280;3132;42.622;23.328;2023-04-09T02:39:09;92967.72;;;4.22;100.00
6198;BME280;3132;42.622;23.328;2023-04-09T02:41:34;92973.94;;;4.21;100.00
6198;BME280;3132;42.622;23.328;2023-04-09T02:44:00;92969.94;;;4.30;100.00
6198;BME280;3132;42.622;23.328;2023-04-09T02:46:25;92950.94;;;4.08;100.00
6198;BME280;3132;42.622;23.328;2023-04-09T02:48:50;92982.75;;;4.36;100.00
6198;BME280;3132;42.622;23.328;2023-04-09T02:51:16;92974.63;;;4.44;100.00
6198;BME280;3132;42.622;23.328;2023-04-09T02:53:41;92972.25;;;4.43;100.00
6198;BME280;3132;42.622;23.328;2023-04-09T02:56:06;92952.56;;;4.25;100.00
6198;BME280;3132;42.622;23.328;2023-04-09T02:58:32;92953.59;;;4.24;100.00
6198;BME280;3132;42.622;23.328;2023-04-09T03:00:57;92959.38;;;4.31;100.00
6198;BME280;3132;42.622;23.328;2023-04-09T03:03:23;92970.06;;;4.35;100.00
6198;BME280;3132;42.622;23.328;2023-04-09T03:05:48;92943.84;;;4.15;100.00
6198;BME280;3132;42.622;23.328;2023-04-09T03:08:13;92946.41;;;3.98;100.00
6198;BME280;3132;42.622;23.328;2023-04-09T03:10:39;92961.50;;;4.06;100.00
6198;BME280;3132;42.622;23.328;2023-04-09T03:13:04;92974.16;;;4.19;100.00
6198;BME280;3132;42.622;23.328;2023-04-09T03:15:30;92951.03;;;4.13;100.00
6198;BME280;3132;42.622;23.328;2023-04-09T03:17:55;92945.47;;;4.04;100.00
6198;BME280;3132;42.622;23.328;2023-04-09T03:20:20;92955.91;;;4.09;100.00
6198;BME280;3132;42.622;23.328;2023-04-09T03:22:46;92963.34;;;4.22;100.00
6198;BME280;3132;42.622;23.328;2023-04-09T03:25:11;92964.75;;;4.13;100.00
6198;BME280;3132;42.622;23.328;2023-04-09T03:27:36;92953.22;;;4.04;100.00
6198;BME280;3132;42.622;23.328;2023-04-09T03:30:02;92950.28;;;4.12;100.00
6198;BME280;3132;42.622;23.328;2023-04-09T03:32:28;92970.75;;;4.02;100.00
6198;BME280;3132;42.622;23.328;2023-04-09T03:34:53;92949.63;;;4.05;100.00
6198;BME280;3132;42.622;23.328;2023-04-09T03:37:18;92885.81;;;3.50;100.00
6198;BME280;3132;42.622;23.328;2023-04-09T03:39:44;92964.72;;;3.97;100.00
6198;BME280;3132;42.622;23.328;2023-04-09T03:42:09;92893.94;;;3.70;100.00
6198;BME280;3132;42.622;23.328;2023-04-09T03:44:35;92956.09;;;4.08;100.00
6198;BME280;3132;42.622;23.328;2023-04-09T03:47:00;92975.22;;;4.07;100.00
6198;BME280;3132;42.622;23.328;2023-04-09T03:49:25;92970.28;;;4.05;100.00
6198;BME280;3132;42.622;23.328;2023-04-09T03:51:51;92973.44;;;4.07;100.00
6198;BME280;3132;42.622;23.328;2023-04-09T03:54:16;92974.19;;;4.08;100.00
6198;BME280;3132;42.622;23.328;2023-04-09T03:56:41;92971.84;;;4.06;100.00
6198;BME280;3132;42.622;23.328;2023-04-09T03:59:07;92914.09;;;3.84;100.00
6198;BME280;3132;42.622;23.328;2023-04-09T04:01:32;92975.59;;;4.27;100.00
6198;BME280;3132;42.622;23.328;2023-04-09T04:03:59;92973.78;;;4.27;100.00
6198;BME280;3132;42.622;23.328;2023-04-09T04:06:24;92985.16;;;4.26;100.00
6198;BME280;3132;42.622;23.328;2023-04-09T04:08:50;92981.66;;;4.32;100.00
6198;BME280;3132;42.622;23.328;2023-04-09T04:11:16;92900.59;;;3.94;100.00
6198;BME280;3132;42.622;23.328;2023-04-09T04:13:41;92983.00;;;4.51;100.00
6198;BME280;3132;42.622;23.328;2023-04-09T04:16:07;92977.69;;;4.58;100.00
6198;BME280;3132;42.622;23.328;2023-04-09T04:18:33;92982.81;;;4.69;100.00
6198;BME280;3132;42.622;23.328;2023-04-09T04:20:59;92973.41;;;4.80;100.00
6198;BME280;3132;42.622;23.328;2023-04-09T04:23:24;92971.69;;;4.85;100.00
6198;BME280;3132;42.622;23.328;2023-04-09T04:25:50;92958.69;;;4.80;100.00
6198;BME280;3132;42.622;23.328;2023-04-09T04:28:17;92976.72;;;5.09;100.00
6198;BME280;3132;42.622;23.328;2023-04-09T04:30:42;92987.53;;;5.22;100.00
6198;BME280;3132;42.622;23.328;2023-04-09T04:33:08;92988.59;;;5.43;100.00
6198;BME280;3132;42.622;23.328;2023-04-09T04:35:33;92985.41;;;5.57;100.00
6198;BME280;3132;42.622;23.328;2023-04-09T04:37:59;92967.19;;;5.69;100.00
6198;BME280;3132;42.622;23.328;2023-04-09T04:40:25;92985.13;;;5.92;100.00
6198;BME280;3132;42.622;23.328;2023-04-09T04:42:51;92983.22;;;5.66;100.00
6198;BME280;3132;42.622;23.328;2023-04-09T04:45:16;92985.06;;;5.87;100.00
6198;BME280;3132;42.622;23.328;2023-04-09T04:47:41;92983.31;;;5.92;100.00
6198;BME280;3132;42.622;23.328;2023-04-09T04:50:07;92991.72;;;6.21;100.00
6198;BME280;3132;42.622;23.328;2023-04-09T04:52:33;92988.88;;;6.22;100.00
6198;BME280;3132;42.622;23.328;2023-04-09T04:54:58;92940.31;;;6.18;100.00
6198;BME280;3132;42.622;23.328;2023-04-09T04:57:24;92990.53;;;6.87;98.70
6198;BME280;3132;42.622;23.328;2023-04-09T04:59:49;92994.75;;;7.24;97.35
6198;BME280;3132;42.622;23.328;2023-04-09T05:02:14;92985.25;;;7.03;95.46
6198;BME280;3132;42.622;23.328;2023-04-09T05:04:40;92997.34;;;7.24;96.38
6198;BME280;3132;42.622;23.328;2023-04-09T05:07:05;92970.94;;;7.32;95.72
6198;BME280;3132;42.622;23.328;2023-04-09T05:09:31;92981.75;;;7.56;94.33
6198;BME280;3132;42.622;23.328;2023-04-09T05:11:56;92984.25;;;7.92;92.19
6198;BME280;3132;42.622;23.328;2023-04-09T05:14:22;93005.13;;;8.02;89.52
6198;BME280;3132;42.622;23.328;2023-04-09T05:16:48;93002.59;;;8.17;88.34
6198;BME280;3132;42.622;23.328;2023-04-09T05:19:13;92990.97;;;8.30;88.60
6198;BME280;3132;42.622;23.328;2023-04-09T05:21:39;92983.19;;;8.45;87.95
6198;BME280;3132;42.622;23.328;2023-04-09T05:24:04;92981.88;;;8.33;89.90
6198;BME280;3132;42.622;23.328;2023-04-09T05:26:30;93006.13;;;8.48;90.64
6198;BME280;3132;42.622;23.328;2023-04-09T05:28:55;93006.38;;;8.42;91.03
6198;BME280;3132;42.622;23.328;2023-04-09T05:31:21;92987.91;;;8.43;91.78
6198;BME280;3132;42.622;23.328;2023-04-09T05:33:46;92996.56;;;8.74;91.84
6198;BME280;3132;42.622;23.328;2023-04-09T05:36:15;93009.63;;;8.99;90.08
6198;BME280;3132;42.622;23.328;2023-04-09T05:38:42;93002.84;;;9.13;87.82
6198;BME280;3132;42.622;23.328;2023-04-09T05:41:08;92999.97;;;8.94;89.10
6198;BME280;3132;42.622;23.328;2023-04-09T05:43:33;93007.47;;;8.66;90.38
6198;BME280;3132;42.622;23.328;2023-04-09T05:45:58;93011.03;;;8.40;92.10
6198;BME280;3132;42.622;23.328;2023-04-09T05:48:24;93007.66;;;8.44;92.14
6198;BME280;3132;42.622;23.328;2023-04-09T05:50:50;93019.59;;;8.35;92.41
6198;BME280;3132;42.622;23.328;2023-04-09T05:53:19;93004.84;;;8.56;91.16
6198;BME280;3132;42.622;23.328;2023-04-09T05:55:45;93001.75;;;8.64;90.29
6198;BME280;3132;42.622;23.328;2023-04-09T05:58:11;93017.41;;;8.89;89.54
6198;BME280;3132;42.622;23.328;2023-04-09T06:00:37;93020.00;;;8.89;88.82
6198;BME280;3132;42.622;23.328;2023-04-09T06:03:03;93020.59;;;9.26;86.08
6198;BME280;3132;42.622;23.328;2023-04-09T06:05:29;93022.69;;;9.54;84.19
6198;BME280;3132;42.622;23.328;2023-04-09T06:07:54;93022.16;;;9.57;83.83
6198;BME280;3132;42.622;23.328;2023-04-09T06:10:20;93028.91;;;9.83;82.46
6198;BME280;3132;42.622;23.328;2023-04-09T06:12:46;93025.75;;;9.91;83.13
6198;BME280;3132;42.622;23.328;2023-04-09T06:15:11;93029.16;;;9.82;82.52
6198;BME280;3132;42.622;23.328;2023-04-09T06:17:36;93032.00;;;9.90;81.13
6198;BME280;3132;42.622;23.328;2023-04-09T06:20:02;93022.63;;;9.89;80.16
6198;BME280;3132;42.622;23.328;2023-04-09T06:22:28;93024.69;;;9.97;80.77
6198;BME280;3132;42.622;23.328;2023-04-09T06:24:53;93011.38;;;10.14;79.46
6198;BME280;3132;42.622;23.328;2023-04-09T06:27:18;93023.59;;;10.28;79.06
6198;BME280;3132;42.622;23.328;2023-04-09T06:29:46;93028.88;;;10.08;78.56
6198;BME280;3132;42.622;23.328;2023-04-09T06:32:11;93033.59;;;9.91;79.49
6198;BME280;3132;42.622;23.328;2023-04-09T06:34:36;93029.28;;;10.40;78.74
6198;BME280;3132;42.622;23.328;2023-04-09T06:37:02;93027.13;;;10.62;78.60
6198;BME280;3132;42.622;23.328;2023-04-09T06:39:27;93034.41;;;10.70;76.46
6198;BME280;3132;42.622;23.328;2023-04-09T06:41:53;93030.34;;;10.44;76.99
6198;BME280;3132;42.622;23.328;2023-04-09T06:44:18;93024.00;;;10.55;79.02
6198;BME280;3132;42.622;23.328;2023-04-09T06:46:45;93044.31;;;11.22;74.20
6198;BME280;3132;42.622;23.328;2023-04-09T06:49:10;93043.69;;;10.91;75.98
6198;BME280;3132;42.622;23.328;2023-04-09T06:51:36;93024.78;;;11.09;74.79
6198;BME280;3132;42.622;23.328;2023-04-09T06:54:01;93048.00;;;11.55;71.62
6198;BME280;3132;42.622;23.328;2023-04-09T06:56:27;93043.81;;;11.54;73.22
6198;BME280;3132;42.622;23.328;2023-04-09T06:58:52;93047.13;;;11.98;70.57
6198;BME280;3132;42.622;23.328;2023-04-09T07:01:18;93038.25;;;12.22;67.66
6198;BME280;3132;42.622;23.328;2023-04-09T07:03:44;92996.22;;;12.14;67.40
6198;BME280;3132;42.622;23.328;2023-04-09T07:06:09;93037.72;;;12.49;66.14
6198;BME280;3132;42.622;23.328;2023-04-09T07:08:35;93032.31;;;12.40;65.88
6198;BME280;3132;42.622;23.328;2023-04-09T07:11:00;93041.38;;;12.24;67.02
6198;BME280;3132;42.622;23.328;2023-04-09T07:13:26;93047.03;;;12.08;68.41
6198;BME280;3132;42.622;23.328;2023-04-09T07:15:51;93047.56;;;11.81;69.31
6198;BME280;3132;42.622;23.328;2023-04-09T07:18:16;93047.28;;;11.83;70.17
6198;BME280;3132;42.622;23.328;2023-04-09T07:20:42;93041.53;;;11.81;68.31
6198;BME280;3132;42.622;23.328;2023-04-09T07:23:07;93056.97;;;11.44;71.01
6198;BME280;3132;42.622;23.328;2023-04-09T07:25:32;93049.16;;;11.77;67.94
6198;BME280;3132;42.622;23.328;2023-04-09T07:27:58;93052.56;;;11.39;67.17
6198;BME280;3132;42.622;23.328;2023-04-09T07:30:23;93057.41;;;11.56;69.32
6198;BME280;3132;42.622;23.328;2023-04-09T07:32:49;93053.16;;;11.65;68.20
6198;BME280;3132;42.622;23.328;2023-04-09T07:35:15;93042.84;;;11.78;66.88
6198;BME280;3132;42.622;23.328;2023-04-09T07:37:42;93052.34;;;12.03;67.08
6198;BME280;3132;42.622;23.328;2023-04-09T07:40:08;93064.56;;;11.79;68.76
6198;BME280;3132;42.622;23.328;2023-04-09T07:42:36;93062.69;;;11.46;70.48
6198;BME280;3132;42.622;23.328;2023-04-09T07:45:02;93061.84;;;11.16;72.15
6198;BME280;3132;42.622;23.328;2023-04-09T07:47:27;93056.09;;;11.14;72.05
6198;BME280;3132;42.622;23.328;2023-04-09T07:49:53;93062.06;;;10.76;73.02
6198;BME280;3132;42.622;23.328;2023-04-09T07:52:18;93063.81;;;10.91;74.00
6198;BME280;3132;42.622;23.328;2023-04-09T07:54:44;93044.88;;;10.55;73.83
6198;BME280;3132;42.622;23.328;2023-04-09T07:57:10;93066.63;;;10.99;73.61
6198;BME280;3132;42.622;23.328;2023-04-09T07:59:35;93049.91;;;11.00;72.14
6198;BME280;3132;42.622;23.328;2023-04-09T08:02:00;93062.38;;;11.13;73.00
6198;BME280;3132;42.622;23.328;2023-04-09T08:04:26;93071.16;;;11.32;71.96
6198;BME280;3132;42.622;23.328;2023-04-09T08:06:52;93072.91;;;11.03;72.93
6198;BME280;3132;42.622;23.328;2023-04-09T08:09:20;93080.16;;;11.11;72.22
6198;BME280;3132;42.622;23.328;2023-04-09T08:11:46;93082.00;;;11.11;71.70
6198;BME280;3132;42.622;23.328;2023-04-09T08:14:13;93076.50;;;11.12;72.09
6198;BME280;3132;42.622;23.328;2023-04-09T08:16:41;93084.00;;;11.24;71.80
6198;BME280;3132;42.622;23.328;2023-04-09T08:19:08;93075.53;;;10.98;71.80
6198;BME280;3132;42.622;23.328;2023-04-09T08:21:39;93067.19;;;10.91;71.87
6198;BME280;3132;42.622;23.328;2023-04-09T08:24:08;93066.63;;;10.99;72.46
6198;BME280;3132;42.622;23.328;2023-04-09T08:26:36;93072.78;;;11.23;72.54
6198;BME280;3132;42.622;23.328;2023-04-09T08:29:01;93070.47;;;11.56;71.43
6198;BME280;3132;42.622;23.328;2023-04-09T08:31:26;93074.88;;;11.21;71.59
6198;BME280;3132;42.622;23.328;2023-04-09T08:33:52;93076.38;;;11.38;71.05
6198;BME280;3132;42.622;23.328;2023-04-09T08:36:18;93052.84;;;10.94;70.91
6198;BME280;3132;42.622;23.328;2023-04-09T08:38:43;93060.72;;;10.79;71.66
6198;BME280;3132;42.622;23.328;2023-04-09T08:41:16;93066.53;;;10.66;73.17
6198;BME280;3132;42.622;23.328;2023-04-09T08:43:43;93052.22;;;10.53;73.71
6198;BME280;3132;42.622;23.328;2023-04-09T08:46:10;93071.88;;;10.99;73.71
6198;BME280;3132;42.622;23.328;2023-04-09T08:48:38;93049.25;;;10.75;73.53
6198;BME280;3132;42.622;23.328;2023-04-09T08:51:06;93066.19;;;10.82;73.52
6198;BME280;3132;42.622;23.328;2023-04-09T08:53:32;93074.50;;;10.94;73.80
6198;BME280;3132;42.622;23.328;2023-04-09T08:55:59;93052.00;;;11.03;73.09
6198;BME280;3132;42.622;23.328;2023-04-09T08:58:24;93056.00;;;10.91;73.69
6198;BME280;3132;42.622;23.328;2023-04-09T09:00:49;93050.00;;;10.80;73.72
6198;BME280;3132;42.622;23.328;2023-04-09T09:03:15;93042.69;;;10.87;73.90
6198;BME280;3132;42.622;23.328;2023-04-09T09:05:43;93058.91;;;10.74;73.18
6198;BME280;3132;42.622;23.328;2023-04-09T09:08:22;93061.78;;;10.78;73.69
6198;BME280;3132;42.622;23.328;2023-04-09T09:10:48;93046.31;;;10.91;74.91
6198;BME280;3132;42.622;23.328;2023-04-09T09:13:17;93059.34;;;10.91;73.12
6198;BME280;3132;42.622;23.328;2023-04-09T09:15:43;93054.69;;;10.88;73.65
6198;BME280;3132;42.622;23.328;2023-04-09T09:18:10;93051.47;;;11.06;72.95
6198;BME280;3132;42.622;23.328;2023-04-09T09:20:35;93059.31;;;11.01;72.30
6198;BME280;3132;42.622;23.328;2023-04-09T09:23:02;93057.81;;;10.90;73.15
6198;BME280;3132;42.622;23.328;2023-04-09T09:25:27;93064.19;;;11.13;71.66
6198;BME280;3132;42.622;23.328;2023-04-09T09:28:06;93057.88;;;11.24;70.74
6198;BME280;3132;42.622;23.328;2023-04-09T09:30:32;93045.69;;;11.09;71.43
6198;BME280;3132;42.622;23.328;2023-04-09T09:33:09;93042.41;;;10.89;71.38
6198;BME280;3132;42.622;23.328;2023-04-09T09:35:48;93045.72;;;11.04;72.10
6198;BME280;3132;42.622;23.328;2023-04-09T09:38:14;93044.09;;;11.13;71.50
6198;BME280;3132;42.622;23.328;2023-04-09T09:40:40;93038.84;;;11.18;71.47
6198;BME280;3132;42.622;23.328;2023-04-09T09:43:06;93021.97;;;10.96;72.91
6198;BME280;3132;42.622;23.328;2023-04-09T09:45:32;93036.31;;;11.03;71.98
6198;BME280;3132;42.622;23.328;2023-04-09T09:47:57;93037.97;;;10.89;72.67
6198;BME280;3132;42.622;23.328;2023-04-09T09:50:23;92997.91;;;11.04;73.03
6198;BME280;3132;42.622;23.328;2023-04-09T09:52:53;92898.38;;;10.18;70.88
6198;BME280;3132;42.622;23.328;2023-04-09T09:55:23;93022.47;;;11.03;72.00
6198;BME280;3132;42.622;23.328;2023-04-09T09:57:51;93019.91;;;10.93;71.04
6198;BME280;3132;42.622;23.328;2023-04-09T10:00:19;93006.03;;;10.97;71.91
6198;BME280;3132;42.622;23.328;2023-04-09T10:02:58;93042.59;;;11.41;71.11
6198;BME280;3132;42.622;23.328;2023-04-09T10:05:24;93032.53;;;11.24;68.99
6198;BME280;3132;42.622;23.328;2023-04-09T10:07:58;93033.09;;;11.16;70.17
6198;BME280;3132;42.622;23.328;2023-04-09T10:10:24;93027.34;;;11.14;70.04
6198;BME280;3132;42.622;23.328;2023-04-09T10:12:51;93011.63;;;11.24;68.47
6198;BME280;3132;42.622;23.328;2023-04-09T10:15:20;92996.06;;;11.04;67.77
6198;BME280;3132;42.622;23.328;2023-04-09T10:17:45;93035.09;;;11.29;68.37
6198;BME280;3132;42.622;23.328;2023-04-09T10:20:23;93026.84;;;11.51;66.37
6198;BME280;3132;42.622;23.328;2023-04-09T10:22:51;93010.66;;;11.44;67.69
6198;BME280;3132;42.622;23.328;2023-04-09T10:25:17;93007.69;;;11.61;66.80
6198;BME280;3132;42.622;23.328;2023-04-09T10:27:43;93023.25;;;11.76;68.58
6198;BME280;3132;42.622;23.328;2023-04-09T10:30:30;93024.19;;;11.56;65.46
6198;BME280;3132;42.622;23.328;2023-04-09T10:33:09;93024.19;;;11.90;63.18
6198;BME280;3132;42.622;23.328;2023-04-09T10:35:35;93027.38;;;12.39;62.17
6198;BME280;3132;42.622;23.328;2023-04-09T10:38:01;93024.88;;;12.71;59.71
6198;BME280;3132;42.622;23.328;2023-04-09T10:40:27;93026.31;;;12.82;60.91
6198;BME280;3132;42.622;23.328;2023-04-09T10:42:54;93016.47;;;12.74;58.63
6198;BME280;3132;42.622;23.328;2023-04-09T10:45:20;93014.06;;;12.96;59.25
6198;BME280;3132;42.622;23.328;2023-04-09T10:47:48;93011.16;;;12.79;59.89
6198;BME280;3132;42.622;23.328;2023-04-09T10:50:25;93010.59;;;12.82;58.88
6198;BME280;3132;42.622;23.328;2023-04-09T10:52:55;93015.22;;;12.48;60.90
6198;BME280;3132;42.622;23.328;2023-04-09T10:55:41;93008.94;;;13.28;56.98
6198;BME280;3132;42.622;23.328;2023-04-09T10:58:12;92988.00;;;12.86;59.32
6198;BME280;3132;42.622;23.328;2023-04-09T11:00:39;92996.88;;;12.90;61.14
6198;BME280;3132;42.622;23.328;2023-04-09T11:05:34;93001.38;;;14.04;56.64
6198;BME280;3132;42.622;23.328;2023-04-09T11:08:04;92997.81;;;14.14;55.70
6198;BME280;3132;42.622;23.328;2023-04-09T11:10:31;93001.59;;;13.94;56.30
6198;BME280;3132;42.622;23.328;2023-04-09T11:12:56;92994.03;;;13.74;58.57
6198;BME280;3132;42.622;23.328;2023-04-09T11:15:22;92992.97;;;13.75;57.39
6198;BME280;3132;42.622;23.328;2023-04-09T11:17:48;92998.75;;;14.04;54.39
6198;BME280;3132;42.622;23.328;2023-04-09T11:20:16;92995.47;;;13.35;57.50
6198;BME280;3132;42.622;23.328;2023-04-09T11:22:43;92965.44;;;12.90;60.49
6198;BME280;3132;42.622;23.328;2023-04-09T11:25:09;92988.53;;;13.25;57.60
6198;BME280;3132;42.622;23.328;2023-04-09T11:27:37;92992.06;;;13.16;60.08
6198;BME280;3132;42.622;23.328;2023-04-09T11:30:03;92987.56;;;13.03;58.59
6198;BME280;3132;42.622;23.328;2023-04-09T11:32:30;92988.47;;;13.12;59.25
6198;BME280;3132;42.622;23.328;2023-04-09T11:34:56;92987.63;;;13.48;58.25
6198;BME280;3132;42.622;23.328;2023-04-09T11:37:22;92989.78;;;13.28;59.65
6198;BME280;3132;42.622;23.328;2023-04-09T11:39:48;92987.06;;;12.58;61.40
6198;BME280;3132;42.622;23.328;2023-04-09T11:42:15;92982.00;;;12.20;61.36
6198;BME280;3132;42.622;23.328;2023-04-09T11:44:41;92985.84;;;11.75;66.09
6198;BME280;3132;42.622;23.328;2023-04-09T11:47:08;92982.03;;;11.91;68.18
6198;BME280;3132;42.622;23.328;2023-04-09T11:49:34;92978.38;;;11.92;67.88
6198;BME280;3132;42.622;23.328;2023-04-09T11:52:00;92982.94;;;12.05;66.20
6198;BME280;3132;42.622;23.328;2023-04-09T11:54:34;92975.94;;;11.72;67.79
6198;BME280;3132;42.622;23.328;2023-04-09T11:57:02;92966.94;;;11.83;65.93
6198;BME280;3132;42.622;23.328;2023-04-09T11:59:28;92966.81;;;11.70;66.12
6198;BME280;3132;42.622;23.328;2023-04-09T12:01:56;92975.09;;;12.05;66.31
6198;BME280;3132;42.622;23.328;2023-04-09T12:04:21;92978.09;;;12.41;64.87
6198;BME280;3132;42.622;23.328;2023-04-09T12:06:47;92970.44;;;12.26;64.47
6198;BME280;3132;42.622;23.328;2023-04-09T12:09:13;92966.41;;;12.10;64.28
6198;BME280;3132;42.622;23.328;2023-04-09T12:11:42;92968.13;;;11.96;64.70
6198;BME280;3132;42.622;23.328;2023-04-09T12:14:13;92956.06;;;12.00;63.08
6198;BME280;3132;42.622;23.328;2023-04-09T12:16:39;92972.84;;;12.41;61.88
6198;BME280;3132;42.622;23.328;2023-04-09T12:19:09;92966.75;;;12.27;61.66
6198;BME280;3132;42.622;23.328;2023-04-09T12:24:11;92971.16;;;12.50;60.75
6198;BME280;3132;42.622;23.328;2023-04-09T12:26:37;92971.53;;;13.04;61.84
6198;BME280;3132;42.622;23.328;2023-04-09T12:29:02;92965.75;;;12.23;61.93
6198;BME280;3132;42.622;23.328;2023-04-09T12:31:27;92965.44;;;12.90;61.59
6198;BME280;3132;42.622;23.328;2023-04-09T12:33:53;92964.91;;;12.69;60.38
6198;BME280;3132;42.622;23.328;2023-04-09T12:36:18;92957.84;;;12.70;61.87
6198;BME280;3132;42.622;23.328;2023-04-09T12:38:43;92955.34;;;13.34;58.65
6198;BME280;3132;42.622;23.328;2023-04-09T12:41:09;92959.69;;;13.07;59.66
6198;BME280;3132;42.622;23.328;2023-04-09T12:43:35;92952.34;;;13.09;58.72
6198;BME280;3132;42.622;23.328;2023-04-09T12:46:00;92959.16;;;12.86;60.96
6198;BME280;3132;42.622;23.328;2023-04-09T12:48:26;92918.31;;;12.06;60.92
6198;BME280;3132;42.622;23.328;2023-04-09T12:50:51;92956.03;;;12.23;61.41
6198;BME280;3132;42.622;23.328;2023-04-09T12:53:17;92963.00;;;12.33;62.24
6198;BME280;3132;42.622;23.328;2023-04-09T12:55:42;92938.91;;;11.89;62.05
6198;BME280;3132;42.622;23.328;2023-04-09T12:58:08;92954.13;;;12.52;62.54
6198;BME280;3132;42.622;23.328;2023-04-09T13:00:33;92949.78;;;12.43;62.99
6198;BME280;3132;42.622;23.328;2023-04-09T13:02:59;92947.09;;;12.90;61.36
6198;BME280;3132;42.622;23.328;2023-04-09T13:05:24;92937.28;;;13.33;57.13
6198;BME280;3132;42.622;23.328;2023-04-09T13:07:50;92931.72;;;13.02;59.10
6198;BME280;3132;42.622;23.328;2023-04-09T13:10:15;92948.25;;;12.42;60.12
6198;BME280;3132;42.622;23.328;2023-04-09T13:12:41;92939.28;;;12.85;60.29
6198;BME280;3132;42.622;23.328;2023-04-09T13:15:06;92940.13;;;12.99;57.91
6198;BME280;3132;42.622;23.328;2023-04-09T13:17:31;92927.66;;;12.72;60.64
6198;BME280;3132;42.622;23.328;2023-04-09T13:19:57;92926.41;;;12.70;59.59